Time;durP1;ratioP1;P1;durP2;ratioP2;P2;SDS_P1;SDS_P2;PMS_P1;PMS_P2;Temp;Humidity;BMP_temperature;BMP_pressure;BME280_temperature;BME280_humidity;BME280_pressure;Samples;Min_cycle;Max_cycle;Signal;HPM_P1;HPM_P2
2023/09/20 00:01:54;;;;;;;6.97;4.18;;;17.50;99.90;;;;;;6149979;23;20028;-78
2023/09/20 00:04:22;;;;;;;12.07;4.90;;;17.70;99.90;;;;;;6124485;23;20018;-77
2023/09/20 00:06:51;;;;;;;9.07;4.15;;;17.80;99.90;;;;;;6126751;23;20327;-79
2023/09/20 00:09:19;;;;;;;7.80;4.05;;;17.70;99.90;;;;;;6125540;23;20440;-77
2023/09/20 00:11:46;;;;;;;7.95;4.70;;;17.70;99.90;;;;;;6125865;23;20022;-78
2023/09/20 00:14:16;;;;;;;10.38;5.15;;;17.60;99.90;;;;;;6125447;23;20025;-78
2023/09/20 00:16:44;;;;;;;10.02;5.05;;;17.60;99.90;;;;;;6158591;23;20105;-77
2023/09/20 00:19:12;;;;;;;8.25;4.22;;;17.60;99.90;;;;;;6161844;23;20018;-74
2023/09/20 00:21:40;;;;;;;16.08;5.57;;;17.70;99.90;;;;;;6162259;23;20017;-76
2023/09/20 00:24:08;;;;;;;10.63;4.75;;;17.60;99.90;;;;;;6126035;23;20037;-74
2023/09/20 00:26:36;;;;;;;9.07;4.13;;;17.60;99.90;;;;;;6164608;23;20002;-74
2023/09/20 00:29:05;;;;;;;7.85;4.55;;;17.60;99.90;;;;;;6134467;23;20032;-74
2023/09/20 00:31:34;;;;;;;7.70;4.70;;;17.50;99.90;;;;;;6135502;23;20113;-76
2023/09/20 00:34:03;;;;;;;13.75;5.38;;;17.50;99.90;;;;;;6127744;23;20044;-76
2023/09/20 00:36:31;;;;;;;9.02;4.20;;;17.50;99.90;;;;;;6152874;23;20100;-76
2023/09/20 00:39:00;;;;;;;10.65;4.70;;;17.50;99.90;;;;;;6128087;23;20108;-76
2023/09/20 00:41:28;;;;;;;11.80;5.03;;;17.50;99.90;;;;;;6127588;23;20088;-76
2023/09/20 00:43:55;;;;;;;11.18;5.30;;;17.50;99.90;;;;;;6126744;23;20021;-76
2023/09/20 00:46:24;;;;;;;12.43;5.57;;;17.50;99.90;;;;;;6127955;23;20021;-76
2023/09/20 00:48:55;;;;;;;11.73;4.93;;;17.40;99.90;;;;;;6128260;23;20017;-74
2023/09/20 00:51:24;;;;;;;13.40;5.15;;;17.30;99.90;;;;;;6128215;23;20022;-77
2023/09/20 00:53:54;;;;;;;10.00;5.10;;;17.30;99.90;;;;;;6152283;23;20049;-74
2023/09/20 00:56:23;;;;;;;9.15;4.22;;;17.30;99.90;;;;;;6136927;23;20022;-75
2023/09/20 00:58:52;;;;;;;11.98;4.97;;;17.30;99.90;;;;;;6141955;23;20032;-74
2023/09/20 01:01:20;;;;;;;11.23;5.35;;;17.40;99.90;;;;;;6133569;23;20041;-76
2023/09/20 01:03:48;;;;;;;11.25;5.15;;;17.40;99.90;;;;;;6131549;23;20014;-75
2023/09/20 01:06:20;;;;;;;11.07;5.15;;;17.40;99.90;;;;;;6132769;23;20338;-73
2023/09/20 01:08:48;;;;;;;12.55;6.38;;;17.50;99.90;;;;;;6128564;23;20021;-76
2023/09/20 01:11:17;;;;;;;11.10;5.70;;;17.50;99.90;;;;;;6138845;23;20029;-72
2023/09/20 01:13:46;;;;;;;13.27;6.45;;;17.50;99.90;;;;;;6151436;23;20032;-74
2023/09/20 01:16:15;;;;;;;9.95;5.55;;;17.50;99.90;;;;;;6152101;23;20052;-76
2023/09/20 01:18:44;;;;;;;12.88;5.70;;;17.40;99.90;;;;;;6134450;23;20442;-75
2023/09/20 01:21:12;;;;;;;12.35;5.88;;;17.40;99.90;;;;;;6155237;23;20123;-75
2023/09/20 01:23:42;;;;;;;12.57;5.93;;;17.40;99.90;;;;;;6128607;23;20076;-76
2023/09/20 01:26:11;;;;;;;10.80;5.38;;;17.30;99.90;;;;;;6127300;23;20049;-76
2023/09/20 01:28:40;;;;;;;10.93;4.95;;;17.20;99.90;;;;;;6129427;23;20473;-74
2023/09/20 01:31:07;;;;;;;10.05;5.25;;;17.10;99.90;;;;;;6127344;23;20018;-75
2023/09/20 01:33:35;;;;;;;11.57;4.97;;;17.20;99.90;;;;;;6128830;23;20089;-77
2023/09/20 01:36:05;;;;;;;11.02;4.82;;;17.10;99.90;;;;;;6129635;23;20109;-77
2023/09/20 01:38:32;;;;;;;12.05;4.78;;;17.10;99.90;;;;;;6132540;23;20076;-76
2023/09/20 01:41:01;;;;;;;7.32;4.47;;;17.20;99.90;;;;;;6154402;23;20025;-75
2023/09/20 01:43:29;;;;;;;12.10;4.57;;;17.20;99.90;;;;;;6139157;23;20014;-75
2023/09/20 01:45:56;;;;;;;10.88;4.85;;;17.20;99.90;;;;;;6153328;23;20049;-76
2023/09/20 01:48:24;;;;;;;8.40;4.18;;;17.10;99.90;;;;;;6152466;23;20048;-73
2023/09/20 01:50:51;;;;;;;9.23;4.72;;;17.20;99.90;;;;;;6152585;23;20021;-74
2023/09/20 01:53:19;;;;;;;10.50;5.07;;;17.10;99.90;;;;;;6133751;23;20454;-77
2023/09/20 01:55:47;;;;;;;11.85;5.30;;;17.00;99.90;;;;;;6127687;23;20045;-76
2023/09/20 01:58:18;;;;;;;10.23;5.30;;;16.80;99.90;;;;;;6127642;23;20085;-75
2023/09/20 02:00:50;;;;;;;9.50;4.85;;;16.90;99.90;;;;;;6128320;23;20021;-76
2023/09/20 02:03:17;;;;;;;9.52;4.93;;;16.80;99.90;;;;;;6127968;23;20053;-78
2023/09/20 02:05:48;;;;;;;11.40;4.82;;;16.80;99.90;;;;;;6152472;23;20022;-75
2023/09/20 02:08:16;;;;;;;12.82;5.43;;;16.90;99.90;;;;;;6127655;23;20450;-76
2023/09/20 02:10:44;;;;;;;10.57;6.03;;;16.80;99.90;;;;;;6130905;23;20022;-74
2023/09/20 02:13:15;;;;;;;9.57;6.38;;;16.80;99.90;;;;;;6127295;23;20140;-74
2023/09/20 02:15:44;;;;;;;10.85;7.10;;;16.90;99.90;;;;;;6127857;23;20021;-75
2023/09/20 02:18:12;;;;;;;13.18;7.18;;;16.70;99.90;;;;;;6127398;23;20026;-76
2023/09/20 02:20:40;;;;;;;14.45;6.85;;;16.80;99.90;;;;;;6138072;23;20029;-77
2023/09/20 02:23:12;;;;;;;11.55;5.78;;;16.70;99.90;;;;;;6144431;23;20045;-74
2023/09/20 02:25:40;;;;;;;14.07;6.30;;;16.60;99.90;;;;;;6135043;23;20605;-77
2023/09/20 02:28:10;;;;;;;9.27;5.95;;;16.60;99.90;;;;;;6164599;23;20105;-79
2023/09/20 02:30:37;;;;;;;11.70;6.22;;;16.60;99.90;;;;;;6127617;23;20014;-76
2023/09/20 02:33:08;;;;;;;13.23;6.07;;;16.60;99.90;;;;;;6151003;23;20018;-77
2023/09/20 02:35:37;;;;;;;13.10;6.35;;;16.50;99.90;;;;;;6126898;23;20403;-76
2023/09/20 02:38:05;;;;;;;9.63;5.43;;;16.40;99.90;;;;;;6126053;23;20030;-76
2023/09/20 02:40:35;;;;;;;9.45;5.10;;;16.40;99.90;;;;;;6160630;23;20025;-76
2023/09/20 02:43:04;;;;;;;13.40;5.60;;;16.40;99.90;;;;;;6151206;23;20100;-76
2023/09/20 02:45:33;;;;;;;13.52;6.93;;;16.40;99.90;;;;;;6151174;23;20029;-77
2023/09/20 02:48:05;;;;;;;11.25;5.50;;;16.40;99.90;;;;;;6126209;23;20030;-73
2023/09/20 02:50:34;;;;;;;12.55;5.97;;;16.40;99.90;;;;;;6126385;23;20052;-76
2023/09/20 02:53:03;;;;;;;12.10;5.32;;;16.30;99.90;;;;;;6150940;23;20033;-76
2023/09/20 02:55:32;;;;;;;10.15;5.63;;;16.20;99.90;;;;;;6128114;23;20454;-75
2023/09/20 02:58:00;;;;;;;11.13;5.72;;;16.20;99.90;;;;;;6159163;23;20022;-73
2023/09/20 03:00:31;;;;;;;10.63;6.13;;;16.10;99.90;;;;;;6134279;23;20017;-76
2023/09/20 03:03:00;;;;;;;12.77;5.18;;;16.10;99.90;;;;;;6131255;23;20017;-76
2023/09/20 03:05:30;;;;;;;11.30;4.80;;;16.10;99.90;;;;;;6140082;23;20028;-75
2023/09/20 03:08:04;;;;;;;10.90;5.57;;;16.00;99.90;;;;;;6142278;23;20025;-76
2023/09/20 03:10:38;;;;;;;14.65;6.45;;;16.00;99.90;;;;;;6137403;23;20033;-76
2023/09/20 03:13:07;;;;;;;10.13;6.15;;;15.90;99.90;;;;;;6159294;23;20077;-76
2023/09/20 03:15:48;;;;;;;10.63;6.20;;;15.90;99.90;;;;;;6172388;23;20018;-74
2023/09/20 03:18:22;;;;;;;8.68;4.85;;;15.90;99.90;;;;;;6166739;23;20018;-74
2023/09/20 03:20:58;;;;;;;11.38;5.50;;;16.00;99.90;;;;;;6115649;23;20026;-76
2023/09/20 03:23:28;;;;;;;10.18;5.90;;;16.10;99.90;;;;;;6167543;23;20028;-76
2023/09/20 03:25:59;;;;;;;14.93;6.45;;;16.00;99.90;;;;;;6138769;23;20030;-74
2023/09/20 03:28:32;;;;;;;13.63;6.90;;;16.10;99.90;;;;;;6128562;23;20036;-74
2023/09/20 03:31:07;;;;;;;16.65;9.13;;;16.10;99.90;;;;;;6128107;23;20021;-72
2023/09/20 03:33:38;;;;;;;19.85;10.30;;;16.10;99.90;;;;;;6128535;23;20022;-73
2023/09/20 03:36:15;;;;;;;18.10;10.00;;;16.10;99.90;;;;;;6157711;23;20025;-73
2023/09/20 03:38:47;;;;;;;16.90;9.02;;;16.10;99.90;;;;;;6121505;23;20508;-76
2023/09/20 03:41:16;;;;;;;16.95;8.95;;;16.10;99.90;;;;;;6144895;23;20029;-76
2023/09/20 03:43:44;;;;;;;12.55;8.35;;;16.10;99.90;;;;;;6151738;23;20040;-73
2023/09/20 03:46:12;;;;;;;15.50;8.13;;;16.00;99.90;;;;;;6150446;23;20021;-76
2023/09/20 03:48:40;;;;;;;14.27;8.18;;;15.90;99.90;;;;;;6149209;23;20024;-75
2023/09/20 03:51:15;;;;;;;14.18;8.93;;;15.90;99.90;;;;;;6149844;23;20730;-76
2023/09/20 03:53:43;;;;;;;18.20;9.57;;;16.00;99.90;;;;;;6141881;23;20017;-77
2023/09/20 03:56:13;;;;;;;16.67;9.00;;;15.80;99.90;;;;;;6151260;23;20021;-77
2023/09/20 03:58:41;;;;;;;15.25;9.13;;;15.70;99.90;;;;;;6151071;23;20021;-75
2023/09/20 04:01:09;;;;;;;14.88;8.32;;;15.70;99.90;;;;;;6148707;23;20037;-74
2023/09/20 04:03:37;;;;;;;13.70;7.68;;;15.70;99.90;;;;;;6139161;23;20021;-73
2023/09/20 04:06:05;;;;;;;14.32;7.60;;;15.70;99.90;;;;;;6132029;23;20021;-72
2023/09/20 04:08:34;;;;;;;9.70;6.05;;;15.80;99.90;;;;;;6132550;23;20031;-74
2023/09/20 04:11:02;;;;;;;12.20;7.22;;;15.80;99.90;;;;;;6157490;23;20076;-76
2023/09/20 04:13:31;;;;;;;11.27;7.63;;;15.90;99.90;;;;;;6129374;23;20031;-74
2023/09/20 04:15:59;;;;;;;11.30;7.25;;;15.70;99.90;;;;;;6131509;23;20025;-74
2023/09/20 04:18:28;;;;;;;13.02;7.85;;;15.50;99.90;;;;;;6205180;23;20020;-75
2023/09/20 04:20:56;;;;;;;15.38;8.55;;;15.50;99.90;;;;;;6196191;23;20032;-75
2023/09/20 04:23:24;;;;;;;15.00;8.60;;;15.50;99.90;;;;;;6206921;23;20028;-73
2023/09/20 04:25:51;;;;;;;21.50;10.13;;;15.70;99.90;;;;;;6203788;23;20104;-77
2023/09/20 04:28:19;;;;;;;15.32;9.40;;;15.70;99.90;;;;;;6204744;23;20020;-76
2023/09/20 04:30:55;;;;;;;20.73;11.35;;;15.60;99.90;;;;;;6248377;23;20009;-76
2023/09/20 04:33:52;;;;;;;22.20;11.25;;;15.60;99.90;;;;;;6210627;23;20047;-76
2023/09/20 04:36:20;;;;;;;18.70;9.70;;;15.60;99.90;;;;;;6211437;23;20035;-78
2023/09/20 04:38:52;;;;;;;18.60;10.60;;;15.60;99.90;;;;;;6207781;23;20024;-76
2023/09/20 04:41:20;;;;;;;16.33;9.20;;;15.60;99.90;;;;;;6235237;23;20024;-76
2023/09/20 04:43:48;;;;;;;16.00;10.10;;;15.60;99.90;;;;;;6207881;23;20087;-77
2023/09/20 04:46:17;;;;;;;16.88;8.70;;;15.60;99.90;;;;;;6201947;23;20043;-73
2023/09/20 04:48:45;;;;;;;16.95;8.18;;;15.40;99.90;;;;;;6211704;23;20024;-75
2023/09/20 04:51:12;;;;;;;17.98;8.60;;;15.30;99.90;;;;;;6209428;23;20085;-77
2023/09/20 04:53:40;;;;;;;13.77;6.85;;;15.30;99.90;;;;;;6208701;23;20039;-77
2023/09/20 04:56:11;;;;;;;17.90;9.38;;;15.40;99.90;;;;;;6209517;23;20072;-77
2023/09/20 04:58:39;;;;;;;13.23;7.15;;;15.60;99.90;;;;;;6190842;23;20029;-77
2023/09/20 05:01:11;;;;;;;15.70;6.63;;;15.60;99.90;;;;;;6191336;23;20000;-75
2023/09/20 05:03:41;;;;;;;17.95;8.57;;;15.60;99.90;;;;;;6207767;23;20031;-74
2023/09/20 05:06:09;;;;;;;13.23;7.80;;;15.60;99.90;;;;;;6205446;23;20021;-77
2023/09/20 05:08:37;;;;;;;13.20;6.60;;;15.60;99.90;;;;;;6202906;23;20520;-78
2023/09/20 05:11:05;;;;;;;15.50;7.80;;;15.60;99.90;;;;;;6189082;23;20092;-74
2023/09/20 05:13:32;;;;;;;17.27;9.60;;;15.60;99.90;;;;;;6186656;23;20075;-75
2023/09/20 05:16:03;;;;;;;14.80;6.90;;;15.70;99.90;;;;;;6188179;23;20048;-77
2023/09/20 05:18:31;;;;;;;12.02;6.03;;;15.80;99.90;;;;;;6187041;23;20024;-76
2023/09/20 05:21:04;;;;;;;17.17;8.57;;;15.90;99.90;;;;;;6187024;23;20028;-76
2023/09/20 05:23:32;;;;;;;20.63;10.43;;;15.90;99.90;;;;;;6199929;23;20024;-80
2023/09/20 05:26:04;;;;;;;19.10;9.02;;;16.10;99.90;;;;;;6187841;23;20032;-76
2023/09/20 05:28:35;;;;;;;25.52;13.60;;;16.20;99.90;;;;;;6199627;23;20453;-78
2023/09/20 05:31:28;;;;;;;20.20;10.80;;;16.40;99.90;;;;;;6226714;23;20021;-76
2023/09/20 05:34:07;;;;;;;17.85;11.57;;;16.50;99.90;;;;;;6067738;23;20663;-77
2023/09/20 05:36:56;;;;;;;;;;;;;;;;;;;;;
2023/09/20 05:39:25;;;;;;;25.15;14.90;;;16.90;99.90;;;;;;6187199;23;20456;-75
2023/09/20 05:41:54;;;;;;;21.50;14.10;;;16.90;99.90;;;;;;6213662;23;20520;-74
2023/09/20 05:44:22;;;;;;;15.98;11.95;;;17.10;99.90;;;;;;6208760;23;20021;-75
2023/09/20 05:46:54;;;;;;;15.40;10.38;;;17.30;99.90;;;;;;6215943;23;20102;-75
2023/09/20 05:49:29;;;;;;;20.70;12.05;;;17.40;99.90;;;;;;6226832;23;20020;-73
2023/09/20 05:52:13;;;;;;;17.88;10.32;;;17.60;99.90;;;;;;6188657;23;20041;-78
2023/09/20 05:54:48;;;;;;;13.55;10.20;;;17.90;99.90;;;;;;6224311;23;20027;-75
2023/09/20 06:00:37;;;;;;;15.60;11.32;;;18.50;99.90;;;;;;6267217;22;20031;-75
2023/09/20 17:59:23;;;;;;;38.20;16.05;;;23.40;99.90;;;;;;6198458;22;20107;-85
2023/09/20 18:24:58;;;;;;;23.35;14.10;;;23.10;99.90;;;;;;6072926;23;20115;-82
2023/09/20 18:28:25;;;;;;;23.77;13.82;;;23.20;99.90;;;;;;6149257;23;20021;-84
2023/09/20 18:31:17;;;;;;;28.77;17.13;;;23.20;99.90;;;;;;6168098;23;20025;-83
2023/09/20 18:40:31;;;;;;;31.50;17.73;;;22.90;99.90;;;;;;6235156;23;20023;-85
2023/09/20 18:47:13;;;;;;;;;;;;;;;;;;;;;
2023/09/20 18:50:22;;;;;;;;;;;;;;;;;;;;;
2023/09/20 18:56:46;;;;;;;57.13;30.05;;;22.50;99.90;;;;;;6065123;23;20030;-83
2023/09/20 18:59:52;;;;;;;;;;;;;;;;;;;;;
2023/09/20 19:03:03;;;;;;;51.40;27.75;;;22.30;99.90;;;;;;6202098;23;20035;-83
2023/09/20 19:06:18;;;;;;;50.53;26.52;;;22.30;99.90;;;;;;6199560;23;20557;-84
2023/09/20 19:09:35;;;;;;;;;;;;;;;;;;;;;
2023/09/20 19:19:37;;;;;;;26.40;15.55;;;22.00;99.90;;;;;;6074723;23;20443;-84
2023/09/20 19:31:05;;;;;;;30.88;16.50;;;21.50;99.90;;;;;;6235807;22;20090;-82
2023/09/20 20:36:12;;;;;;;38.13;20.63;;;21.50;99.90;;;;;;6142501;23;20080;-81
2023/09/20 20:38:39;;;;;;;35.63;18.63;;;21.50;99.90;;;;;;6247133;23;20032;-78
2023/09/20 20:41:07;;;;;;;34.10;21.75;;;21.60;99.90;;;;;;6217315;23;20415;-79
2023/09/20 20:43:37;;;;;;;38.25;20.98;;;21.50;99.90;;;;;;6216109;23;20020;-77
2023/09/20 20:46:49;;;;;;;29.92;17.92;;;21.50;99.90;;;;;;6216873;23;20046;-79
2023/09/20 20:49:29;;;;;;;29.17;16.83;;;21.40;99.90;;;;;;6214558;23;20020;-83
2023/09/20 20:51:56;;;;;;;33.38;17.27;;;21.30;99.90;;;;;;6252861;23;20020;-78
2023/09/20 20:54:52;;;;;;;32.10;17.00;;;21.20;99.90;;;;;;6244415;23;20082;-84
2023/09/20 20:57:30;;;;;;;28.27;17.70;;;21.20;99.90;;;;;;6243314;23;20020;-78
2023/09/20 20:59:58;;;;;;;26.92;17.92;;;21.30;99.90;;;;;;6215369;23;20020;-78
2023/09/20 21:02:28;;;;;;;28.63;17.45;;;21.20;99.90;;;;;;6214526;23;20357;-80
2023/09/20 21:04:57;;;;;;;30.23;18.67;;;21.30;99.90;;;;;;6248339;23;20020;-79
2023/09/20 21:07:27;;;;;;;30.48;16.75;;;21.30;99.90;;;;;;6250066;23;20342;-80
2023/09/20 21:09:54;;;;;;;26.08;16.30;;;21.20;99.90;;;;;;6216315;23;20012;-80
2023/09/20 21:12:22;;;;;;;32.92;17.30;;;21.20;99.90;;;;;;6214292;23;20039;-81
2023/09/20 21:14:49;;;;;;;32.88;17.88;;;21.10;99.90;;;;;;6245055;23;20023;-77
2023/09/20 21:17:17;;;;;;;35.55;19.13;;;21.10;99.90;;;;;;6215209;23;20111;-81
2023/09/20 21:19:44;;;;;;;32.90;17.20;;;21.00;99.90;;;;;;6249585;23;20020;-80
2023/09/20 21:22:13;;;;;;;27.70;17.33;;;21.00;99.90;;;;;;6213692;23;20071;-79
2023/09/20 21:24:42;;;;;;;31.13;16.65;;;21.10;99.90;;;;;;6253275;23;20042;-77
2023/09/20 21:27:09;;;;;;;24.85;15.82;;;21.10;99.90;;;;;;6244213;23;20027;-77
2023/09/20 21:29:37;;;;;;;20.90;14.40;;;21.10;99.90;;;;;;6215607;23;20100;-78
2023/09/20 21:32:05;;;;;;;31.70;22.38;;;21.00;99.90;;;;;;6214439;23;20020;-80
2023/09/20 21:34:33;;;;;;;27.50;15.40;;;20.90;99.90;;;;;;6250022;23;20081;-79
2023/09/20 21:37:01;;;;;;;23.73;14.80;;;20.90;99.90;;;;;;6253063;23;20040;-78
2023/09/20 21:39:29;;;;;;;26.30;15.35;;;20.90;99.90;;;;;;6241897;23;20091;-79
2023/09/20 21:41:58;;;;;;;26.58;15.85;;;21.00;99.90;;;;;;6244048;23;20023;-80
2023/09/20 21:44:26;;;;;;;36.20;18.20;;;20.90;99.90;;;;;;6214669;23;20604;-80
2023/09/20 21:46:53;;;;;;;27.50;17.33;;;20.80;99.90;;;;;;6215188;23;20028;-81
2023/09/20 21:49:21;;;;;;;28.38;17.05;;;21.00;99.90;;;;;;6257647;23;20220;-79
2023/09/20 21:51:48;;;;;;;27.38;15.85;;;20.90;99.90;;;;;;6230647;23;20047;-80
2023/09/20 21:54:18;;;;;;;25.52;16.65;;;20.90;99.90;;;;;;6215676;23;20046;-80
2023/09/20 21:56:47;;;;;;;23.17;15.20;;;20.90;99.90;;;;;;6244899;23;20024;-79
2023/09/20 21:59:14;;;;;;;25.08;15.88;;;20.90;99.90;;;;;;6247276;23;20020;-80
2023/09/20 22:01:42;;;;;;;29.05;17.35;;;20.80;99.90;;;;;;6215058;23;20020;-79
2023/09/20 22:04:10;;;;;;;28.08;16.92;;;20.90;99.90;;;;;;6251546;23;20039;-79
2023/09/20 22:06:38;;;;;;;28.10;17.00;;;21.00;99.90;;;;;;6252611;23;20018;-80
2023/09/20 22:09:09;;;;;;;30.08;18.23;;;20.80;99.90;;;;;;6215506;23;20086;-80
2023/09/20 22:11:36;;;;;;;26.65;15.85;;;20.70;99.90;;;;;;6214819;23;20020;-79
2023/09/20 22:14:05;;;;;;;22.63;15.60;;;20.70;99.90;;;;;;6247357;23;20032;-81
2023/09/20 22:16:34;;;;;;;25.70;15.60;;;20.70;99.90;;;;;;6252552;23;20028;-80
2023/09/20 22:19:02;;;;;;;24.92;15.85;;;20.70;99.90;;;;;;6219270;23;20024;-78
2023/09/20 22:21:30;;;;;;;29.45;17.23;;;20.60;99.90;;;;;;6214752;23;20413;-81
2023/09/20 22:23:58;;;;;;;22.60;16.13;;;20.50;99.90;;;;;;6216201;23;20043;-79
2023/09/20 22:26:26;;;;;;;38.03;17.50;;;20.50;99.90;;;;;;6217356;23;20051;-80
2023/09/20 22:28:53;;;;;;;30.67;16.45;;;20.40;99.90;;;;;;6217737;23;20449;-79
2023/09/20 22:31:24;;;;;;;24.63;16.23;;;20.50;99.90;;;;;;6220526;23;20044;-79
2023/09/20 22:33:52;;;;;;;22.98;15.27;;;20.40;99.90;;;;;;6209351;23;20020;-79
2023/09/20 22:36:19;;;;;;;30.08;16.77;;;20.50;99.90;;;;;;6212583;23;20024;-79
2023/09/20 22:38:48;;;;;;;23.52;16.50;;;20.50;99.90;;;;;;6213992;23;20021;-79
2023/09/20 22:41:16;;;;;;;25.27;17.13;;;20.50;99.90;;;;;;6216729;23;20508;-80
2023/09/20 22:43:44;;;;;;;24.45;16.88;;;20.60;99.90;;;;;;6184506;23;20021;-79
2023/09/20 22:46:12;;;;;;;25.08;16.40;;;20.60;99.90;;;;;;6225022;23;20019;-79
2023/09/20 22:48:43;;;;;;;26.30;16.65;;;20.60;99.90;;;;;;6192220;23;20025;-79
2023/09/20 22:51:10;;;;;;;22.48;15.95;;;20.60;99.90;;;;;;6213997;23;20084;-79
2023/09/20 22:53:38;;;;;;;24.13;15.80;;;20.50;99.90;;;;;;6214999;23;20099;-81
2023/09/20 22:56:10;;;;;;;25.05;16.52;;;20.50;99.90;;;;;;6216269;23;20104;-80
2023/09/20 22:58:38;;;;;;;23.55;15.90;;;20.50;99.90;;;;;;6219287;23;20021;-79
2023/09/20 23:01:06;;;;;;;27.77;16.13;;;20.40;99.90;;;;;;6220973;23;20036;-79
2023/09/20 23:03:34;;;;;;;25.90;15.80;;;20.40;99.90;;;;;;6222544;23;20017;-80
2023/09/20 23:06:03;;;;;;;24.60;15.15;;;20.40;99.90;;;;;;6210173;23;20464;-78
2023/09/20 23:08:34;;;;;;;21.95;14.35;;;20.40;99.90;;;;;;6186905;23;20528;-80
2023/09/20 23:11:09;;;;;;;21.73;14.20;;;20.40;99.90;;;;;;6219427;23;20599;-80
2023/09/20 23:13:38;;;;;;;27.02;14.75;;;20.50;99.90;;;;;;6221632;23;20103;-77
2023/09/20 23:16:15;;;;;;;20.98;14.32;;;20.40;99.90;;;;;;6230517;23;20279;-78
2023/09/20 23:18:44;;;;;;;25.42;15.40;;;20.30;99.90;;;;;;6194650;23;20107;-78
2023/09/20 23:21:15;;;;;;;22.80;15.30;;;20.30;99.90;;;;;;6219476;23;20025;-78
2023/09/20 23:23:45;;;;;;;22.65;15.32;;;20.20;99.90;;;;;;6223187;23;20048;-79
2023/09/20 23:26:15;;;;;;;23.13;15.45;;;20.10;99.90;;;;;;6230598;23;20024;-79
2023/09/20 23:28:43;;;;;;;22.33;14.07;;;20.10;99.90;;;;;;6240088;23;20031;-79
2023/09/20 23:31:12;;;;;;;24.02;15.50;;;20.00;99.90;;;;;;6247975;23;20009;-78
2023/09/20 23:33:40;;;;;;;20.55;14.25;;;20.00;99.90;;;;;;6248369;23;20031;-78
2023/09/20 23:36:07;;;;;;;21.48;14.52;;;20.00;99.90;;;;;;6213315;23;20061;-79
2023/09/20 23:38:38;;;;;;;23.45;15.02;;;19.90;99.90;;;;;;6231148;23;20072;-79
2023/09/20 23:41:11;;;;;;;22.15;14.75;;;20.00;99.90;;;;;;6231482;23;20025;-80
2023/09/20 23:43:42;;;;;;;20.80;14.68;;;19.90;99.90;;;;;;6227927;23;20378;-78
2023/09/20 23:46:10;;;;;;;21.52;14.23;;;19.80;99.90;;;;;;6229279;23;20023;-78
2023/09/20 23:48:38;;;;;;;19.98;14.50;;;19.80;99.90;;;;;;6241054;23;20496;-79
2023/09/20 23:51:07;;;;;;;22.23;14.48;;;19.80;99.90;;;;;;6230295;23;20020;-78
2023/09/20 23:53:37;;;;;;;19.80;13.77;;;19.70;99.90;;;;;;6235165;23;20024;-78
2023/09/20 23:56:06;;;;;;;19.02;14.55;;;19.70;99.90;;;;;;6234180;23;20083;-78
2023/09/20 23:58:34;;;;;;;17.95;14.15;;;19.70;99.90;;;;;;6222042;23;20099;-79
